Time;durP1;ratioP1;P1;durP2;ratioP2;P2;SDS_P1;SDS_P2;PMS_P1;PMS_P2;Temp;Humidity;BMP_temperature;BMP_pressure;BME280_temperature;BME280_humidity;BME280_pressure;Samples;Min_cycle;Max_cycle;Signal;HPM_P1;HPM_P2
2021/01/10 00:00:32;;;;;;;17.23;10.58;;;;;;;2.16;65.01;100700.41;1692087;83;21244;-65
2021/01/10 00:03:00;;;;;;;19.60;10.10;;;;;;;2.17;64.66;100702.08;1755091;81;22563;-63
2021/01/10 00:05:32;;;;;;;19.60;10.85;;;;;;;2.14;64.76;100703.06;1735486;81;21180;-64
2021/01/10 00:07:59;;;;;;;18.17;10.18;;;;;;;2.13;64.73;100708.31;1751728;81;21155;-63
2021/01/10 00:10:27;;;;;;;17.80;11.12;;;;;;;2.09;64.90;100698.52;1750891;81;21140;-63
2021/01/10 00:12:58;;;;;;;20.80;10.32;;;;;;;2.10;64.70;100708.00;1747747;81;21125;-62
2021/01/10 00:15:26;;;;;;;16.95;10.15;;;;;;;2.11;64.76;100710.14;1768401;81;21563;-63
2021/01/10 00:17:53;;;;;;;15.23;8.00;;;;;;;2.11;64.79;100708.84;1742577;81;21140;-64
2021/01/10 00:20:21;;;;;;;16.00;10.13;;;;;;;2.09;64.69;100702.41;1735516;81;21204;-63
2021/01/10 00:22:54;;;;;;;17.40;9.70;;;;;;;2.10;64.66;100705.41;1755983;81;21160;-63
2021/01/10 00:25:22;;;;;;;22.27;11.43;;;;;;;2.08;64.77;100708.48;1762621;81;21128;-64
2021/01/10 00:27:50;;;;;;;16.60;9.30;;;;;;;2.07;64.64;100713.73;1753029;81;21168;-67
2021/01/10 00:30:20;;;;;;;21.68;10.43;;;;;;;2.04;64.69;100709.06;1755897;81;21133;-62
2021/01/10 00:32:52;;;;;;;18.70;10.45;;;;;;;2.06;64.81;100715.96;1754449;81;21194;-64
2021/01/10 00:35:20;;;;;;;20.75;10.43;;;;;;;2.06;64.82;100717.26;1758912;80;21195;-62
2021/01/10 00:37:56;;;;;;;18.42;10.28;;;;;;;2.07;64.72;100720.23;1757941;81;21240;-64
2021/01/10 00:40:25;;;;;;;16.52;8.15;;;;;;;2.06;64.74;100724.59;1760432;81;21574;-64
2021/01/10 00:42:52;;;;;;;18.07;9.25;;;;;;;2.04;64.74;100723.34;1756599;81;21117;-64
2021/01/10 00:45:20;;;;;;;16.82;10.60;;;;;;;2.06;64.76;100722.45;1764147;81;21829;-64
2021/01/10 00:47:53;;;;;;;17.92;10.55;;;;;;;2.07;64.67;100724.13;1756844;81;21184;-61
2021/01/10 00:50:19;;;;;;;18.62;10.65;;;;;;;2.07;64.63;100725.42;1734544;81;21105;-62
2021/01/10 00:52:47;;;;;;;20.40;9.20;;;;;;;2.06;64.75;100725.05;1747813;81;21191;-63
2021/01/10 00:55:15;;;;;;;17.23;9.63;;;;;;;2.08;64.67;100722.77;1762357;81;21184;-63
2021/01/10 00:57:42;;;;;;;18.50;10.55;;;;;;;2.05;64.71;100717.69;1760048;81;21153;-60
2021/01/10 01:00:13;;;;;;;21.23;10.00;;;;;;;2.06;64.72;100721.16;1736213;81;21184;-63
2021/01/10 01:02:42;;;;;;;18.27;9.63;;;;;;;2.04;64.72;100722.05;1747512;81;21129;-63
2021/01/10 01:05:12;;;;;;;19.02;10.88;;;;;;;2.04;64.83;100713.42;1742220;81;21179;-63
2021/01/10 01:07:39;;;;;;;18.30;10.35;;;;;;;2.06;64.85;100726.34;1757283;81;21160;-63
2021/01/10 01:10:10;;;;;;;18.35;10.28;;;;;;;2.08;64.80;100719.34;1763755;81;21189;-62
2021/01/10 01:12:38;;;;;;;20.70;10.68;;;;;;;2.06;64.91;100716.80;1749792;81;21187;-64
2021/01/10 01:15:08;;;;;;;19.27;10.30;;;;;;;2.08;64.77;100711.55;1738914;81;21188;-64
2021/01/10 01:17:36;;;;;;;21.12;10.18;;;;;;;2.04;64.78;100716.86;1687785;83;21778;-64
2021/01/10 01:20:08;;;;;;;17.35;9.95;;;;;;;2.06;64.82;100710.77;1766167;80;21509;-62
2021/01/10 01:22:35;;;;;;;15.43;9.90;;;;;;;2.02;64.83;100713.48;1744568;80;21207;-63
2021/01/10 01:25:05;;;;;;;21.73;11.88;;;;;;;2.03;64.85;100716.91;1770262;80;21200;-63
2021/01/10 01:27:33;;;;;;;20.72;10.85;;;;;;;2.03;64.95;100715.61;1765308;80;21195;-64
2021/01/10 01:30:05;;;;;;;17.50;10.35;;;;;;;2.06;64.93;100717.26;1760537;80;21144;-63
2021/01/10 01:32:36;;;;;;;19.05;10.38;;;;;;;2.05;64.88;100715.09;1772865;80;21120;-64
2021/01/10 01:35:05;;;;;;;19.48;10.28;;;;;;;2.05;64.90;100724.18;1755177;80;21317;-63
2021/01/10 01:37:36;;;;;;;15.68;9.73;;;;;;;2.06;65.05;100719.86;1766177;80;21564;-64
2021/01/10 01:40:07;;;;;;;14.80;8.75;;;;;;;2.08;64.91;100722.77;1776589;80;21753;-63
2021/01/10 01:42:35;;;;;;;18.30;9.73;;;;;;;2.06;64.93;100720.69;1760753;80;21195;-64
2021/01/10 01:45:06;;;;;;;17.05;11.10;;;;;;;2.05;65.02;100718.98;1768523;80;21171;-63
2021/01/10 01:47:34;;;;;;;20.20;10.43;;;;;;;2.02;65.08;100719.97;1746007;80;21482;-64
2021/01/10 01:50:06;;;;;;;19.02;11.68;;;;;;;2.00;65.13;100718.33;1771123;80;21211;-65
2021/01/10 01:52:34;;;;;;;16.80;9.08;;;;;;;2.01;65.10;100716.13;1679271;84;21604;-66
2021/01/10 01:55:05;;;;;;;17.50;10.18;;;;;;;1.98;65.20;100717.09;1696689;83;21123;-66
2021/01/10 01:57:32;;;;;;;21.48;10.90;;;;;;;1.97;65.30;100722.36;1673850;83;21583;-63
2021/01/10 02:00:00;;;;;;;14.63;9.20;;;;;;;1.92;65.32;100721.23;1709096;83;21220;-62
2021/01/10 02:02:28;;;;;;;18.15;10.18;;;;;;;1.96;65.30;100724.55;1677098;83;21160;-64
2021/01/10 02:05:08;;;;;;;19.80;10.68;;;;;;;1.93;65.46;100730.69;1662783;83;21200;-64
2021/01/10 02:18:18;;;;;;;21.85;11.55;;;;;;;1.79;66.04;100727.80;1894542;73;22750;-64
2021/01/10 02:20:46;;;;;;;17.05;10.68;;;;;;;1.71;66.20;100726.78;1843023;76;21539;-63
2021/01/10 02:23:32;;;;;;;17.55;10.63;;;;;;;1.77;66.32;100731.75;1805263;77;22719;-64
2021/01/10 02:26:01;;;;;;;18.75;11.08;;;;;;;1.77;66.28;100726.55;1779523;79;21101;-64
2021/01/10 02:28:32;;;;;;;17.92;11.25;;;;;;;1.80;66.19;100730.34;1720858;81;21210;-63
2021/01/10 02:31:01;;;;;;;20.32;10.90;;;;;;;1.85;66.20;100733.60;1743496;80;21042;-62
2021/01/10 02:33:44;;;;;;;17.27;11.40;;;;;;;1.87;66.16;100728.36;1666478;83;21171;-63
2021/01/10 02:36:53;;;;;;;18.67;10.18;;;;;;;1.91;66.06;100732.97;1750983;80;21141;-63
2021/01/10 02:39:55;;;;;;;19.15;11.38;;;;;;;1.89;66.07;100722.65;1687063;83;21144;-63
2021/01/10 02:42:27;;;;;;;21.48;11.57;;;;;;;1.91;66.10;100726.02;1704604;82;21208;-61
2021/01/10 02:45:03;;;;;;;17.50;11.12;;;;;;;1.91;66.11;100726.48;1694244;82;20989;-63
2021/01/10 02:47:31;;;;;;;20.65;11.35;;;;;;;1.89;66.23;100720.52;1729455;81;21223;-63
2021/01/10 02:49:59;;;;;;;18.05;10.63;;;;;;;1.86;66.29;100720.16;1731762;81;21705;-63
2021/01/10 02:52:26;;;;;;;19.05;11.03;;;;;;;1.85;66.38;100721.09;1723132;83;21211;-64
2021/01/10 02:54:54;;;;;;;20.40;11.75;;;;;;;1.83;66.42;100723.74;1722059;82;21437;-61
2021/01/10 02:57:33;;;;;;;18.98;10.45;;;;;;;1.84;66.51;100719.39;1723622;80;21192;-64
2021/01/10 03:00:00;;;;;;;19.52;12.37;;;;;;;1.88;66.51;100724.00;1694911;81;21183;-63
2021/01/10 03:02:27;;;;;;;17.52;9.58;;;;;;;1.89;66.48;100724.41;1736297;80;21196;-63
2021/01/10 03:04:56;;;;;;;18.85;11.22;;;;;;;1.92;66.40;100723.00;1742338;81;21197;-62
2021/01/10 03:07:24;;;;;;;22.22;12.25;;;;;;;1.92;66.31;100720.41;1708427;81;21221;-63
2021/01/10 03:09:52;;;;;;;18.30;10.43;;;;;;;1.94;66.27;100714.23;1708551;83;21642;-63
2021/01/10 03:12:27;;;;;;;22.90;11.45;;;;;;;1.95;66.21;100721.13;1669042;83;21149;-62
2021/01/10 03:14:56;;;;;;;19.65;9.18;;;;;;;1.97;66.30;100732.75;1722208;81;21187;-64
2021/01/10 03:17:40;;;;;;;19.07;11.48;;;;;;;1.94;66.31;100723.77;1723287;81;21148;-64
2021/01/10 03:20:10;;;;;;;19.80;11.57;;;;;;;1.91;66.39;100720.83;1712794;82;21206;-64
2021/01/10 03:22:38;;;;;;;19.90;11.33;;;;;;;2.00;66.25;100717.89;1723026;81;21212;-64
2021/01/10 03:25:07;;;;;;;21.45;11.48;;;;;;;2.09;65.99;100729.66;1735638;81;21619;-64
2021/01/10 03:27:35;;;;;;;18.17;11.53;;;;;;;2.09;66.03;100730.96;1701148;82;21291;-63
2021/01/10 03:30:08;;;;;;;22.65;11.93;;;;;;;2.07;66.07;100728.89;1747093;80;21192;-64
2021/01/10 03:32:36;;;;;;;20.85;10.95;;;;;;;2.03;66.10;100729.89;1774985;79;21268;-63
2021/01/10 03:35:06;;;;;;;22.20;13.18;;;;;;;2.01;66.20;100726.05;1759099;80;21150;-63
2021/01/10 03:37:34;;;;;;;21.35;12.33;;;;;;;2.02;66.15;100733.41;1742804;80;21220;-64
2021/01/10 03:40:07;;;;;;;19.40;11.38;;;;;;;2.00;66.17;100732.17;1704434;82;21113;-62
2021/01/10 03:42:35;;;;;;;23.50;12.93;;;;;;;2.01;66.18;100733.84;1772421;79;22290;-63
2021/01/10 03:45:05;;;;;;;17.62;10.70;;;;;;;1.99;66.16;100730.47;1706456;82;21243;-62
2021/01/10 03:47:33;;;;;;;20.23;11.45;;;;;;;2.02;66.12;100722.56;1715601;80;21136;-63
2021/01/10 03:50:07;;;;;;;19.48;11.08;;;;;;;2.00;66.04;100732.17;1760607;80;21627;-62
2021/01/10 03:52:35;;;;;;;20.52;9.75;;;;;;;2.01;66.08;100731.25;1705333;82;21196;-65
2021/01/10 03:55:05;;;;;;;21.65;11.65;;;;;;;2.00;66.13;100739.09;1767905;79;21709;-63
2021/01/10 03:57:37;;;;;;;21.23;11.65;;;;;;;2.02;66.12;100730.35;1762379;80;22689;-63
2021/01/10 04:00:08;;;;;;;17.95;11.80;;;;;;;2.01;66.07;100731.25;1764028;79;21181;-63
2021/01/10 04:02:39;;;;;;;20.43;12.07;;;;;;;2.03;65.97;100724.70;1731712;81;21230;-61
2021/01/10 04:05:09;;;;;;;18.42;12.40;;;;;;;2.01;66.04;100731.25;1734331;80;21160;-61
2021/01/10 04:07:36;;;;;;;20.00;12.25;;;;;;;2.01;66.01;100727.36;1674480;83;21235;-62
2021/01/10 04:10:06;;;;;;;21.07;11.40;;;;;;;1.99;66.07;100726.58;1758347;79;22164;-61
2021/01/10 04:12:33;;;;;;;21.52;12.35;;;;;;;2.01;66.10;100726.05;1709167;82;21216;-60
2021/01/10 04:15:00;;;;;;;17.30;10.63;;;;;;;2.03;66.14;100731.19;1760907;80;21493;-59
2021/01/10 04:17:29;;;;;;;18.02;10.82;;;;;;;2.06;65.93;100734.97;1702083;82;21170;-61
2021/01/10 04:19:57;;;;;;;18.60;10.32;;;;;;;2.06;65.92;100743.22;1766202;79;21181;-59
2021/01/10 04:22:25;;;;;;;18.92;11.25;;;;;;;2.04;65.92;100739.38;1763732;79;21191;-55
2021/01/10 04:24:52;;;;;;;23.77;12.60;;;;;;;2.02;65.93;100739.44;1685172;82;21154;-58
2021/01/10 04:27:20;;;;;;;18.57;10.80;;;;;;;2.03;65.98;100737.68;1761645;79;21089;-55
2021/01/10 04:29:49;;;;;;;25.08;13.05;;;;;;;2.01;65.96;100742.92;1725874;80;21182;-55
2021/01/10 04:32:17;;;;;;;22.42;12.60;;;;;;;2.02;66.04;100746.39;1768283;79;21619;-67
2021/01/10 04:34:44;;;;;;;23.50;13.20;;;;;;;1.99;65.96;100755.13;1772152;79;21385;-66
2021/01/10 04:37:12;;;;;;;20.75;12.88;;;;;;;2.02;66.07;100747.23;1737931;80;21156;-67
2021/01/10 04:39:39;;;;;;;18.45;11.63;;;;;;;2.05;66.05;100756.63;1708050;82;21128;-62
2021/01/10 04:42:06;;;;;;;20.40;11.68;;;;;;;2.02;65.95;100765.86;1771837;80;21145;-60
2021/01/10 04:44:34;;;;;;;23.07;12.88;;;;;;;2.01;66.10;100765.45;1753808;80;21174;-60
2021/01/10 04:47:02;;;;;;;20.82;12.58;;;;;;;2.04;66.10;100764.88;1761186;79;21404;-60
2021/01/10 04:49:30;;;;;;;17.57;11.85;;;;;;;2.06;66.08;100778.27;1711340;82;21128;-62
2021/01/10 04:51:58;;;;;;;21.75;12.53;;;;;;;2.07;65.93;100775.61;1763435;79;21201;-62
2021/01/10 04:54:27;;;;;;;19.65;11.85;;;;;;;2.08;66.04;100775.15;1757024;80;21192;-64
2021/01/10 04:56:57;;;;;;;22.75;10.63;;;;;;;2.18;65.89;100785.56;1755586;79;21765;-67
2021/01/10 04:59:24;;;;;;;18.57;12.25;;;;;;;2.30;65.58;100778.59;1747532;80;21197;-65
2021/01/10 05:01:53;;;;;;;19.57;11.45;;;;;;;2.36;65.33;100786.15;1761810;80;21227;-66
2021/01/10 05:04:23;;;;;;;19.23;11.75;;;;;;;2.36;65.32;100782.72;1764702;79;21607;-66
2021/01/10 05:06:50;;;;;;;25.72;11.35;;;;;;;2.35;65.31;100793.53;1764143;79;21173;-64
2021/01/10 05:09:18;;;;;;;19.02;11.60;;;;;;;2.35;65.41;100792.23;1748857;79;21737;-64
2021/01/10 05:11:45;;;;;;;21.55;12.05;;;;;;;2.34;65.27;100799.66;1770236;79;21203;-64
2021/01/10 05:14:13;;;;;;;21.37;12.15;;;;;;;2.32;65.17;100797.58;1681956;83;21207;-63
2021/01/10 05:16:40;;;;;;;22.40;12.07;;;;;;;2.27;65.26;100798.20;1727497;80;21241;-64
2021/01/10 05:19:08;;;;;;;17.90;10.68;;;;;;;2.21;65.36;100801.03;1661922;82;21205;-61
2021/01/10 05:21:42;;;;;;;19.07;10.65;;;;;;;2.21;65.40;100804.93;1669997;82;21236;-65
2021/01/10 05:24:10;;;;;;;19.35;11.15;;;;;;;2.17;65.56;100800.31;1746795;80;22616;-64
2021/01/10 05:26:37;;;;;;;20.85;11.90;;;;;;;2.17;65.45;100808.09;1694058;80;21211;-66
2021/01/10 05:29:08;;;;;;;17.02;11.48;;;;;;;2.15;65.59;100807.75;1770405;79;21216;-65
2021/01/10 05:31:45;;;;;;;25.97;12.05;;;;;;;2.15;65.62;100806.02;1688524;82;21190;-63
2021/01/10 05:34:17;;;;;;;21.17;12.10;;;;;;;2.17;65.63;100809.83;1729006;80;21236;-63
2021/01/10 05:36:45;;;;;;;22.37;12.43;;;;;;;2.19;65.63;100803.69;1763881;79;21259;-62
2021/01/10 05:39:29;;;;;;;18.42;11.38;;;;;;;2.23;65.57;100813.50;1763948;79;21195;-64
2021/01/10 05:42:05;;;;;;;25.05;13.13;;;;;;;2.23;65.51;100813.50;1769039;79;21224;-61
2021/01/10 05:44:47;;;;;;;18.07;11.83;;;;;;;2.21;65.56;100812.72;1755188;79;21801;-63
2021/01/10 05:47:16;;;;;;;22.58;12.15;;;;;;;2.20;65.72;100820.09;1761969;79;21236;-60
2021/01/10 05:49:51;;;;;;;20.40;11.93;;;;;;;2.24;65.85;100822.98;1766270;79;21724;-66
2021/01/10 05:52:20;;;;;;;18.35;11.63;;;;;;;2.27;65.97;100825.48;1764716;79;21140;-59
2021/01/10 05:54:53;;;;;;;20.65;11.75;;;;;;;2.32;65.77;100824.84;1764820;79;21180;-63
2021/01/10 05:57:27;;;;;;;20.08;10.72;;;;;;;2.35;65.56;100832.95;1765613;79;21215;-62
2021/01/10 05:59:56;;;;;;;21.77;12.53;;;;;;;2.38;65.52;100828.95;1743767;80;21231;-62
2021/01/10 06:02:36;;;;;;;18.05;11.00;;;;;;;2.37;65.19;100828.53;1693923;83;21227;-61
2021/01/10 06:05:14;;;;;;;21.68;11.12;;;;;;;2.31;65.31;100828.33;1754290;80;21183;-62
2021/01/10 06:07:42;;;;;;;20.12;12.35;;;;;;;2.25;65.40;100825.96;1763611;80;21635;-63
2021/01/10 06:10:10;;;;;;;18.77;12.00;;;;;;;2.25;65.66;100830.32;1701535;82;21253;-62
2021/01/10 06:12:41;;;;;;;21.23;11.48;;;;;;;2.35;65.53;100834.25;1738990;80;21208;-60
2021/01/10 06:15:16;;;;;;;17.77;10.32;;;;;;;2.46;65.17;100834.69;1751896;79;21204;-62
2021/01/10 06:17:50;;;;;;;18.30;11.03;;;;;;;2.51;65.09;100841.02;1742596;80;22247;-62
2021/01/10 06:20:28;;;;;;;21.30;13.25;;;;;;;2.51;64.94;100845.74;1701503;83;21773;-64
2021/01/10 06:22:59;;;;;;;20.43;12.90;;;;;;;2.48;64.96;100849.75;1692457;83;21221;-63
2021/01/10 06:25:37;;;;;;;16.37;10.65;;;;;;;2.44;65.08;100846.03;1699045;83;21231;-61
2021/01/10 06:28:12;;;;;;;29.77;14.35;;;;;;;2.44;65.08;100846.03;1755694;79;22770;-60
2021/01/10 06:30:54;;;;;;;19.73;12.05;;;;;;;2.43;65.11;100850.39;1759954;79;21219;-59
2021/01/10 06:33:30;;;;;;;24.30;11.40;;;;;;;2.43;65.20;100851.69;1675879;84;21203;-59
2021/01/10 06:36:06;;;;;;;22.42;11.08;;;;;;;2.44;65.15;100859.02;1752960;79;21195;-60
2021/01/10 06:38:38;;;;;;;22.60;11.80;;;;;;;2.41;65.08;100858.23;1720620;80;21219;-60
2021/01/10 06:41:37;;;;;;;19.50;11.88;;;;;;;2.41;65.21;100863.89;1740929;79;21262;-60
2021/01/10 06:44:06;;;;;;;16.37;10.72;;;;;;;2.38;65.15;100868.73;1756422;79;21671;-61
2021/01/10 06:46:35;;;;;;;22.77;12.98;;;;;;;2.36;65.29;100883.54;1712131;80;21207;-61
2021/01/10 06:49:03;;;;;;;20.88;11.03;;;;;;;2.33;65.34;100877.63;1747661;80;21623;-62
2021/01/10 06:51:31;;;;;;;20.25;9.95;;;;;;;2.29;65.53;100877.36;1765431;79;21153;-62
2021/01/10 06:54:06;;;;;;;21.65;12.58;;;;;;;2.30;65.60;100888.12;1769422;79;21214;-63
2021/01/10 06:56:34;;;;;;;22.95;11.88;;;;;;;2.27;65.63;100887.80;1727714;80;21294;-62
2021/01/10 06:59:10;;;;;;;18.20;11.10;;;;;;;2.28;65.65;100885.58;1747894;80;21536;-61
2021/01/10 07:01:56;;;;;;;22.65;11.08;;;;;;;2.30;65.70;100896.75;1732585;80;21224;-63
2021/01/10 07:04:37;;;;;;;21.45;11.83;;;;;;;2.33;65.74;100891.91;1755446;79;21208;-62
2021/01/10 07:07:04;;;;;;;23.02;12.30;;;;;;;2.32;65.77;100897.98;1742300;79;21224;-62
2021/01/10 07:09:53;;;;;;;20.48;12.20;;;;;;;2.39;65.77;100899.02;1755238;79;21221;-61
2021/01/10 07:12:21;;;;;;;19.27;10.80;;;;;;;2.53;65.50;100893.75;1740684;80;21575;-61
2021/01/10 07:14:49;;;;;;;18.42;10.20;;;;;;;2.67;65.25;100907.03;1702661;83;21169;-63
2021/01/10 07:17:19;;;;;;;19.17;10.35;;;;;;;2.75;64.74;100906.28;1738039;80;21556;-62
2021/01/10 07:19:49;;;;;;;20.20;12.05;;;;;;;2.73;64.68;100908.57;1674744;83;21407;-61
2021/01/10 07:22:26;;;;;;;18.35;10.10;;;;;;;2.72;64.79;100905.56;1703744;82;21279;-61
2021/01/10 07:24:54;;;;;;;20.60;12.58;;;;;;;2.68;64.72;100904.84;1766886;79;21191;-62
2021/01/10 07:27:34;;;;;;;17.35;11.05;;;;;;;2.65;64.85;100898.92;1756127;79;21216;-65
2021/01/10 07:30:22;;;;;;;15.85;10.63;;;;;;;2.65;64.90;100912.75;1703795;82;21244;-62
2021/01/10 07:32:50;;;;;;;20.00;10.72;;;;;;;2.63;65.04;100906.77;1703062;82;21285;-61
2021/01/10 07:35:18;;;;;;;22.25;11.83;;;;;;;2.66;65.07;100917.05;1750536;80;21220;-63
2021/01/10 07:39:19;;;;;;;17.60;10.95;;;;;;;2.74;64.96;100912.41;1870188;76;22498;-62
2021/01/10 07:41:47;;;;;;;17.75;10.43;;;;;;;2.70;64.90;100916.48;1848313;77;21113;-63
2021/01/10 07:44:17;;;;;;;21.05;11.97;;;;;;;2.67;65.04;100917.43;1740522;79;21943;-62
2021/01/10 07:46:54;;;;;;;21.20;11.03;;;;;;;2.67;65.06;100910.94;1772871;78;21222;-63
2021/01/10 07:49:29;;;;;;;19.60;10.05;;;;;;;2.69;65.15;100915.64;1747057;80;21181;-62
2021/01/10 07:51:58;;;;;;;22.13;11.75;;;;;;;2.70;64.99;100917.78;1781372;78;21223;-62
2021/01/10 07:54:51;;;;;;;16.55;9.50;;;;;;;2.69;64.97;100917.38;1807343;78;21623;-63
2021/01/10 07:57:27;;;;;;;18.82;10.18;;;;;;;2.66;64.98;100930.52;1768631;78;21973;-63
2021/01/10 08:00:28;;;;;;;18.25;10.75;;;;;;;2.60;65.09;100919.88;1777543;79;21218;-65
2021/01/10 08:03:03;;;;;;;17.40;9.95;;;;;;;2.57;65.24;100927.36;1805314;78;21642;-63
2021/01/10 08:05:38;;;;;;;19.37;10.40;;;;;;;2.53;65.37;100932.25;1815593;77;21221;-64
2021/01/10 08:08:17;;;;;;;;;;;;;;;2.50;65.67;100935.42;1775254;80;21228;-63
2021/01/10 08:10:51;;;;;;;17.27;9.48;;;;;;;2.49;65.76;100938.91;1782224;78;21913;-64
2021/01/10 08:13:40;;;;;;;18.67;10.90;;;;;;;2.41;65.87;100937.92;1779408;78;21123;-62
2021/01/10 08:16:14;;;;;;;18.35;10.13;;;;;;;2.36;65.98;100932.89;1777886;78;21191;-61
2021/01/10 08:18:45;;;;;;;16.85;11.78;;;;;;;2.45;66.02;100941.24;1775047;80;21201;-61
2021/01/10 08:21:16;;;;;;;22.10;10.75;;;;;;;2.55;65.73;100939.99;1751599;80;21187;-62
2021/01/10 08:23:46;;;;;;;17.75;10.53;;;;;;;2.63;65.67;100936.66;1782576;79;22135;-61
2021/01/10 08:26:15;;;;;;;16.30;9.08;;;;;;;2.66;65.54;100937.84;1774495;79;21219;-61
2021/01/10 08:28:44;;;;;;;22.22;10.55;;;;;;;2.65;65.58;100938.73;1777507;80;21191;-60
2021/01/10 08:31:19;;;;;;;21.70;10.93;;;;;;;2.64;65.49;100942.26;1746429;80;21144;-62
2021/01/10 08:33:48;;;;;;;20.55;11.85;;;;;;;2.62;65.67;100937.55;1745975;80;21630;-60
2021/01/10 08:36:20;;;;;;;18.90;10.30;;;;;;;2.59;65.90;100933.33;1756497;78;21204;-62
2021/01/10 08:38:59;;;;;;;20.43;11.18;;;;;;;2.60;65.69;100935.47;1803885;78;21188;-62
2021/01/10 08:41:38;;;;;;;17.12;10.32;;;;;;;2.58;65.82;100932.09;1766688;79;21169;-62
2021/01/10 08:44:12;;;;;;;20.55;11.20;;;;;;;2.63;65.72;100937.95;1812800;77;21167;-62
2021/01/10 08:46:49;;;;;;;18.60;10.32;;;;;;;2.76;65.63;100936.58;1782316;77;21215;-62
2021/01/10 08:49:18;;;;;;;18.23;10.93;;;;;;;2.82;65.41;100928.15;1806682;78;21304;-61
2021/01/10 08:51:49;;;;;;;18.48;10.45;;;;;;;2.84;65.41;100940.20;1757615;80;21259;-60
2021/01/10 08:54:23;;;;;;;23.35;11.35;;;;;;;2.86;65.27;100932.31;1817569;78;21188;-64
2021/01/10 08:56:55;;;;;;;19.12;11.68;;;;;;;2.86;65.33;100934.91;1785068;78;21235;-62
2021/01/10 08:59:23;;;;;;;19.92;10.15;;;;;;;2.84;65.41;100927.63;1756571;80;21235;-62
2021/01/10 09:01:51;;;;;;;19.77;11.18;;;;;;;2.82;65.36;100934.19;1788188;78;21526;-62
2021/01/10 09:04:19;;;;;;;14.73;9.78;;;;;;;2.79;65.53;100926.07;1792869;78;21197;-62
2021/01/10 09:07:11;;;;;;;18.17;9.90;;;;;;;2.82;65.44;100930.75;1770801;80;21679;-61
2021/01/10 09:09:54;;;;;;;17.55;10.95;;;;;;;2.79;65.40;100929.97;1787138;80;21204;-63
2021/01/10 09:12:43;;;;;;;18.17;10.82;;;;;;;2.79;65.38;100918.27;1814860;78;21209;-63
2021/01/10 09:15:21;;;;;;;16.93;9.68;;;;;;;2.79;65.49;100935.59;1784024;78;21191;-66
2021/01/10 09:18:02;;;;;;;19.70;10.28;;;;;;;2.87;65.33;100923.16;1810973;77;21243;-60
2021/01/10 09:20:32;;;;;;;20.45;11.28;;;;;;;2.96;65.04;100924.11;1782647;78;21239;-62
2021/01/10 09:22:59;;;;;;;21.02;9.08;;;;;;;3.02;65.04;100927.37;1787393;78;21561;-64
2021/01/10 09:25:31;;;;;;;24.07;11.65;;;;;;;3.03;65.02;100933.81;1760638;78;21181;-62
2021/01/10 09:28:15;;;;;;;16.75;9.98;;;;;;;3.04;64.84;100930.28;1786850;78;21944;-63
2021/01/10 09:30:54;;;;;;;22.00;11.00;;;;;;;3.00;64.44;100926.13;1813006;78;21204;-62
2021/01/10 09:33:31;;;;;;;21.35;12.20;;;;;;;2.95;64.59;100924.16;1752763;78;21735;-62
2021/01/10 09:36:01;;;;;;;20.35;12.00;;;;;;;2.92;64.78;100922.98;1812609;78;22335;-63
2021/01/10 09:38:31;;;;;;;22.20;11.83;;;;;;;2.94;64.53;100921.16;1771639;80;21203;-61
2021/01/10 09:41:09;;;;;;;16.62;9.45;;;;;;;2.97;64.69;100922.34;1799914;79;21262;-62
2021/01/10 09:43:45;;;;;;;18.02;10.50;;;;;;;2.98;64.09;100922.28;1776384;80;21246;-62
2021/01/10 09:46:38;;;;;;;21.40;11.80;;;;;;;2.99;63.96;100920.52;1750956;80;21242;-63
2021/01/10 09:49:25;;;;;;;13.98;10.32;;;;;;;3.06;64.09;100929.79;1781839;80;21156;-62
2021/01/10 09:51:54;;;;;;;19.10;10.60;;;;;;;3.21;63.58;100923.56;1754654;80;21504;-63
2021/01/10 09:54:29;;;;;;;19.02;11.43;;;;;;;3.25;63.46;100921.25;1772802;80;21223;-61
2021/01/10 09:57:01;;;;;;;16.62;9.73;;;;;;;3.20;63.82;100924.49;1761320;80;21274;-61
2021/01/10 09:59:55;;;;;;;18.00;10.53;;;;;;;3.19;63.61;100918.88;1771047;80;21223;-62
2021/01/10 10:02:25;;;;;;;19.37;11.53;;;;;;;3.15;63.64;100923.37;1756523;79;21457;-61
2021/01/10 10:04:54;;;;;;;18.62;10.98;;;;;;;3.08;63.89;100924.06;1776182;80;21239;-61
2021/01/10 10:07:34;;;;;;;21.12;12.75;;;;;;;3.06;64.16;100918.09;1758682;78;21226;-61
2021/01/10 10:10:06;;;;;;;15.32;9.60;;;;;;;3.07;64.29;100918.47;1774840;80;21167;-60
2021/01/10 10:12:33;;;;;;;18.32;10.53;;;;;;;3.11;64.05;100929.58;1775742;80;21183;-61
2021/01/10 10:15:09;;;;;;;16.27;10.98;;;;;;;3.11;64.06;100921.78;1780624;78;21167;-61
2021/01/10 10:17:38;;;;;;;21.55;11.88;;;;;;;3.09;63.57;100921.87;1785877;80;21115;-61
2021/01/10 10:20:09;;;;;;;18.57;11.30;;;;;;;3.07;63.69;100914.56;1770476;80;21188;-61
2021/01/10 10:22:37;;;;;;;16.77;10.48;;;;;;;3.09;63.83;100917.97;1758920;80;21174;-61
2021/01/10 10:25:07;;;;;;;25.00;10.58;;;;;;;3.14;63.70;100920.36;1784234;78;21183;-60
2021/01/10 10:27:36;;;;;;;21.35;13.35;;;;;;;3.14;63.76;100916.46;1780272;80;21174;-61
2021/01/10 10:30:05;;;;;;;19.60;10.55;;;;;;;3.15;63.83;100924.20;1758100;80;21525;-60
2021/01/10 10:32:33;;;;;;;21.12;12.00;;;;;;;3.19;63.66;100921.48;1776236;80;21373;-61
2021/01/10 10:35:01;;;;;;;22.48;12.80;;;;;;;3.22;63.67;100912.27;1755227;80;21211;-60
2021/01/10 10:37:28;;;;;;;22.80;12.20;;;;;;;3.26;63.30;100916.42;1777593;79;21446;-60
2021/01/10 10:39:56;;;;;;;18.92;11.45;;;;;;;3.28;63.33;100912.02;1784997;78;21576;-61
2021/01/10 10:42:23;;;;;;;22.93;10.82;;;;;;;3.28;63.29;100910.72;1764805;79;21127;-60
2021/01/10 10:44:51;;;;;;;19.35;12.10;;;;;;;3.27;62.41;100912.92;1781867;80;21184;-60
2021/01/10 10:47:18;;;;;;;19.15;10.93;;;;;;;3.24;62.54;100915.64;1750928;80;21179;-63
2021/01/10 10:49:46;;;;;;;19.40;11.15;;;;;;;3.24;62.60;100915.64;1787345;80;21155;-61
2021/01/10 10:52:13;;;;;;;20.50;10.65;;;;;;;3.23;62.54;100911.34;1784184;79;21588;-62
2021/01/10 10:54:42;;;;;;;20.50;11.83;;;;;;;3.21;62.59;100916.62;1778210;80;21119;-62
2021/01/10 10:57:11;;;;;;;19.37;10.08;;;;;;;3.20;62.76;100915.39;1755830;80;21177;-60
2021/01/10 10:59:39;;;;;;;20.37;11.65;;;;;;;3.21;62.85;100914.03;1752566;80;21235;-61
2021/01/10 11:02:12;;;;;;;17.85;10.98;;;;;;;3.22;62.73;100913.09;1780940;78;21199;-63
2021/01/10 11:04:47;;;;;;;17.60;11.70;;;;;;;3.25;62.77;100907.78;1783323;78;21204;-60
2021/01/10 11:07:15;;;;;;;17.60;10.85;;;;;;;3.25;62.55;100907.78;1785616;78;21607;-62
2021/01/10 11:09:43;;;;;;;23.83;12.65;;;;;;;3.26;62.61;100906.02;1758412;80;21231;-63
2021/01/10 11:12:11;;;;;;;22.82;11.33;;;;;;;3.27;62.34;100909.85;1755215;80;21202;-63
2021/01/10 11:14:39;;;;;;;19.77;11.35;;;;;;;3.28;62.29;100911.56;1778373;80;21151;-62
2021/01/10 11:17:11;;;;;;;20.65;11.50;;;;;;;3.28;62.46;100913.33;1780522;79;21210;-61
2021/01/10 11:19:38;;;;;;;20.72;11.15;;;;;;;3.27;62.30;100905.95;1746967;80;21159;-63
2021/01/10 11:22:06;;;;;;;20.27;11.60;;;;;;;3.31;62.37;100908.84;1801484;78;21432;-62
2021/01/10 11:24:35;;;;;;;18.00;12.15;;;;;;;3.31;62.37;100899.73;1783779;78;21208;-62
2021/01/10 11:27:03;;;;;;;26.00;12.93;;;;;;;3.33;62.46;100907.47;1781488;78;21180;-66
2021/01/10 11:29:30;;;;;;;18.67;11.18;;;;;;;3.37;62.51;100904.28;1774435;80;21199;-63
2021/01/10 11:31:58;;;;;;;22.70;12.30;;;;;;;3.39;62.28;100899.86;1752405;80;21214;-62
2021/01/10 11:34:26;;;;;;;16.45;10.23;;;;;;;3.43;62.16;100903.58;1782417;80;22564;-61
2021/01/10 11:36:54;;;;;;;23.47;11.20;;;;;;;3.42;61.95;100907.08;1771984;80;21669;-60
2021/01/10 11:39:25;;;;;;;19.07;11.28;;;;;;;3.46;61.99;100912.99;1785981;79;21141;-62
2021/01/10 11:41:54;;;;;;;17.82;11.38;;;;;;;3.58;61.42;100912.93;1784667;79;21542;-62
2021/01/10 11:44:24;;;;;;;20.90;11.73;;;;;;;3.64;61.21;100907.47;1753062;79;21170;-63
2021/01/10 11:46:53;;;;;;;18.60;11.25;;;;;;;3.64;60.98;100912.68;1796050;78;21096;-62
2021/01/10 11:49:22;;;;;;;20.82;12.25;;;;;;;3.60;61.13;100917.61;1758277;80;21227;-62
2021/01/10 11:51:49;;;;;;;16.40;9.83;;;;;;;3.55;61.09;100913.92;1789766;78;21184;-64